Time;durP1;ratioP1;P1;durP2;ratioP2;P2;SDS_P1;SDS_P2;PMS_P1;PMS_P2;Temp;Humidity;BMP_temperature;BMP_pressure;BME280_temperature;BME280_humidity;BME280_pressure;Samples;Min_cycle;Max_cycle;Signal;HPM_P1;HPM_P2
2023/12/27 00:00:39;;;;;;;3.10;1.50;;;9.60;99.90;;;;;;5052711;28;20473;-48
2023/12/27 00:03:07;;;;;;;3.27;1.50;;;9.60;99.90;;;;;;5060844;28;21011;-48
2023/12/27 00:05:35;;;;;;;3.17;1.77;;;9.60;99.90;;;;;;5057636;28;20509;-49
2023/12/27 00:08:05;;;;;;;4.67;1.80;;;9.60;99.90;;;;;;5042103;28;20483;-46
2023/12/27 00:10:33;;;;;;;3.87;1.30;;;9.60;99.90;;;;;;5063262;28;20462;-48
2023/12/27 00:13:02;;;;;;;2.40;1.40;;;9.60;99.90;;;;;;5049558;28;20990;-46
2023/12/27 00:15:30;;;;;;;3.17;1.83;;;9.60;99.90;;;;;;5056108;28;20995;-47
2023/12/27 00:17:58;;;;;;;4.50;1.57;;;9.60;99.90;;;;;;5056567;28;20975;-48
2023/12/27 00:20:26;;;;;;;3.37;1.50;;;9.60;99.90;;;;;;5059455;28;20981;-49
2023/12/27 00:22:54;;;;;;;3.20;1.50;;;9.60;99.90;;;;;;5051990;28;21101;-50
2023/12/27 00:25:24;;;;;;;2.87;1.53;;;9.60;99.90;;;;;;5055815;28;20505;-49
2023/12/27 00:27:52;;;;;;;3.30;1.50;;;9.60;99.90;;;;;;5057960;28;20560;-47
2023/12/27 00:30:20;;;;;;;3.63;1.73;;;9.50;99.90;;;;;;5061703;28;20448;-47
2023/12/27 00:32:48;;;;;;;3.00;1.30;;;9.50;99.90;;;;;;5063450;28;20513;-47
2023/12/27 00:35:16;;;;;;;2.90;1.77;;;9.50;99.90;;;;;;5052215;28;20506;-47
2023/12/27 00:37:44;;;;;;;3.20;1.67;;;9.50;99.90;;;;;;5055328;28;21013;-50
2023/12/27 00:40:13;;;;;;;2.17;1.23;;;9.50;99.90;;;;;;5058145;28;20460;-47
2023/12/27 00:42:42;;;;;;;2.67;1.50;;;9.50;99.90;;;;;;5057926;28;20999;-48
2023/12/27 00:45:11;;;;;;;3.13;1.67;;;9.50;99.90;;;;;;5039419;28;20431;-46
2023/12/27 00:47:39;;;;;;;3.57;1.57;;;9.50;99.90;;;;;;5054239;28;20463;-46
2023/12/27 00:50:08;;;;;;;3.87;1.37;;;9.50;99.90;;;;;;5038806;28;20477;-47
2023/12/27 00:52:36;;;;;;;2.93;1.43;;;9.50;99.90;;;;;;5052406;28;20851;-49
2023/12/27 00:55:05;;;;;;;4.10;1.60;;;9.50;99.90;;;;;;5046389;28;20833;-47
2023/12/27 00:57:33;;;;;;;3.33;1.30;;;9.50;99.90;;;;;;5054237;28;20470;-48
2023/12/27 01:00:04;;;;;;;2.67;1.57;;;9.50;99.90;;;;;;5036739;28;20444;-46
2023/12/27 01:02:34;;;;;;;2.10;1.37;;;9.50;99.90;;;;;;5064005;28;20460;-49
2023/12/27 01:05:03;;;;;;;5.17;2.30;;;9.50;99.90;;;;;;5051106;28;20434;-46
2023/12/27 01:07:31;;;;;;;3.60;2.00;;;9.40;99.90;;;;;;5038385;28;20469;-48
2023/12/27 01:09:59;;;;;;;3.97;2.10;;;9.50;99.90;;;;;;5059767;28;20467;-49
2023/12/27 01:12:27;;;;;;;3.77;1.70;;;9.40;99.90;;;;;;5057047;28;20459;-51
2023/12/27 01:14:55;;;;;;;3.37;1.73;;;9.40;99.90;;;;;;5051258;28;20446;-50
2023/12/27 01:17:25;;;;;;;3.90;1.70;;;9.50;99.90;;;;;;5058095;28;20466;-49
2023/12/27 01:19:53;;;;;;;3.13;1.73;;;9.40;99.90;;;;;;5058542;28;20789;-52
2023/12/27 01:22:21;;;;;;;4.60;1.43;;;9.40;99.90;;;;;;5057823;28;20466;-45
2023/12/27 01:24:49;;;;;;;3.60;2.00;;;9.40;99.90;;;;;;5046567;28;20581;-49
2023/12/27 01:27:17;;;;;;;2.13;1.23;;;9.40;99.90;;;;;;5057639;28;20676;-50
2023/12/27 01:29:45;;;;;;;3.00;1.50;;;9.40;99.90;;;;;;5049248;28;20574;-46
2023/12/27 01:32:14;;;;;;;3.50;1.40;;;9.40;99.90;;;;;;5060552;28;20459;-47
2023/12/27 01:34:43;;;;;;;4.80;1.57;;;9.40;99.90;;;;;;5051375;28;20431;-48
2023/12/27 01:37:12;;;;;;;3.70;1.77;;;9.40;99.90;;;;;;5046913;28;20459;-52
2023/12/27 01:39:40;;;;;;;3.50;2.27;;;9.40;99.90;;;;;;5057488;28;20441;-51
2023/12/27 01:42:08;;;;;;;2.30;1.10;;;9.40;99.90;;;;;;5059266;28;20473;-49
2023/12/27 01:44:36;;;;;;;2.53;1.13;;;9.40;99.90;;;;;;5040797;28;20990;-47
2023/12/27 01:47:05;;;;;;;6.10;1.60;;;9.40;99.90;;;;;;5056844;28;20473;-49
2023/12/27 01:49:34;;;;;;;2.47;1.33;;;9.40;99.90;;;;;;5052139;28;20474;-48
2023/12/27 01:52:04;;;;;;;2.60;1.50;;;9.40;99.90;;;;;;5050478;28;20458;-50
2023/12/27 01:54:32;;;;;;;2.07;1.43;;;9.40;99.90;;;;;;5048102;28;20611;-48
2023/12/27 01:57:00;;;;;;;3.97;1.43;;;9.40;99.90;;;;;;5054045;28;20467;-47
2023/12/27 01:59:30;;;;;;;2.13;1.50;;;9.40;99.90;;;;;;5050501;28;20488;-48
2023/12/27 02:01:59;;;;;;;3.30;1.23;;;9.40;99.90;;;;;;5050909;28;21073;-48
2023/12/27 02:04:27;;;;;;;2.57;1.40;;;9.40;99.90;;;;;;5044380;28;20442;-47
2023/12/27 02:06:56;;;;;;;2.90;1.60;;;9.30;99.90;;;;;;5061912;28;21059;-49
2023/12/27 02:09:26;;;;;;;3.27;1.53;;;9.30;99.90;;;;;;5055005;28;20478;-47
2023/12/27 02:11:54;;;;;;;4.43;1.90;;;9.30;99.90;;;;;;5060897;28;20458;-48
2023/12/27 02:14:22;;;;;;;4.50;1.60;;;9.30;99.90;;;;;;5048380;28;20515;-49
2023/12/27 02:16:51;;;;;;;3.27;1.90;;;9.30;99.90;;;;;;5062870;28;20462;-47
2023/12/27 02:19:21;;;;;;;4.67;1.77;;;9.30;99.90;;;;;;5056814;28;20458;-48
2023/12/27 02:21:50;;;;;;;2.47;1.50;;;9.30;99.90;;;;;;5048595;28;20642;-48
2023/12/27 02:24:20;;;;;;;6.90;1.80;;;9.30;99.90;;;;;;5055414;28;20451;-49
2023/12/27 02:26:50;;;;;;;2.70;1.23;;;9.30;99.90;;;;;;5060040;28;20483;-45
2023/12/27 02:29:19;;;;;;;5.93;2.07;;;9.30;99.90;;;;;;5056810;28;20471;-47
2023/12/27 02:31:47;;;;;;;4.47;2.07;;;9.30;99.90;;;;;;5061826;28;20483;-48
2023/12/27 02:34:15;;;;;;;3.43;1.87;;;9.30;99.90;;;;;;5056808;28;20442;-50
2023/12/27 02:36:44;;;;;;;4.70;2.17;;;9.20;99.90;;;;;;5063786;28;20454;-47
2023/12/27 02:39:13;;;;;;;3.83;1.90;;;9.30;99.90;;;;;;5051728;28;20478;-49
2023/12/27 02:41:41;;;;;;;3.03;1.70;;;9.20;99.90;;;;;;5062725;28;20484;-46
2023/12/27 02:44:11;;;;;;;3.80;2.10;;;9.20;99.90;;;;;;5048224;28;20493;-48
2023/12/27 02:46:39;;;;;;;7.17;1.87;;;9.20;99.90;;;;;;5060450;28;20476;-46
2023/12/27 02:49:08;;;;;;;4.00;1.73;;;9.20;99.90;;;;;;5052877;28;20443;-45
2023/12/27 02:51:36;;;;;;;2.60;1.77;;;9.20;99.90;;;;;;5049390;28;20554;-48
2023/12/27 02:54:04;;;;;;;4.20;2.30;;;9.20;99.90;;;;;;5048854;28;20433;-48
2023/12/27 02:56:32;;;;;;;2.50;1.73;;;9.20;99.90;;;;;;5059621;28;20475;-50
2023/12/27 02:59:00;;;;;;;3.03;2.00;;;9.20;99.90;;;;;;5039530;28;20444;-47
2023/12/27 03:01:29;;;;;;;3.03;2.03;;;9.20;99.90;;;;;;5042500;28;20446;-49
2023/12/27 03:03:57;;;;;;;2.80;1.90;;;9.20;99.90;;;;;;5057069;28;20437;-51
2023/12/27 03:06:25;;;;;;;4.37;1.63;;;9.20;99.90;;;;;;5056456;28;20454;-50
2023/12/27 03:08:53;;;;;;;4.97;2.50;;;9.20;99.90;;;;;;5051164;28;20800;-47
2023/12/27 03:11:22;;;;;;;4.10;2.00;;;9.20;99.90;;;;;;5048125;28;20471;-48
2023/12/27 03:13:50;;;;;;;7.70;2.43;;;9.20;99.90;;;;;;5050486;28;20438;-47
2023/12/27 03:16:19;;;;;;;3.47;1.73;;;9.20;99.90;;;;;;5062891;28;20569;-49
2023/12/27 03:18:49;;;;;;;4.43;2.50;;;9.20;99.90;;;;;;5044810;28;20483;-47
2023/12/27 03:21:17;;;;;;;3.87;1.90;;;9.10;99.90;;;;;;5056733;28;20466;-50
2023/12/27 03:23:45;;;;;;;3.10;1.60;;;9.20;99.90;;;;;;5042348;28;20426;-47
2023/12/27 03:26:14;;;;;;;3.37;1.77;;;9.20;99.90;;;;;;5055735;28;20435;-49
2023/12/27 03:28:42;;;;;;;3.37;1.97;;;9.20;99.90;;;;;;5050617;28;20448;-49
2023/12/27 03:31:10;;;;;;;7.20;2.47;;;9.10;99.90;;;;;;5053656;28;21069;-47
2023/12/27 03:33:39;;;;;;;3.23;1.93;;;9.10;99.90;;;;;;5053977;28;20577;-46
2023/12/27 03:36:09;;;;;;;4.97;2.80;;;9.10;99.90;;;;;;5048922;28;20443;-48
2023/12/27 03:38:37;;;;;;;3.43;1.60;;;9.20;99.90;;;;;;5050377;28;20474;-49
2023/12/27 03:41:05;;;;;;;4.10;2.60;;;9.10;99.90;;;;;;5064589;28;20535;-48
2023/12/27 03:43:33;;;;;;;2.90;2.00;;;9.20;99.90;;;;;;5040941;28;20460;-47
2023/12/27 03:46:01;;;;;;;3.00;1.80;;;9.10;99.90;;;;;;5062351;28;20449;-47
2023/12/27 03:48:29;;;;;;;2.27;1.70;;;9.10;99.90;;;;;;5056450;28;21057;-49
2023/12/27 03:50:57;;;;;;;2.50;1.60;;;9.10;99.90;;;;;;5059034;28;20462;-47
2023/12/27 03:53:27;;;;;;;2.90;2.20;;;9.10;99.90;;;;;;5058693;28;20454;-47
2023/12/27 03:55:55;;;;;;;2.90;1.70;;;9.10;99.90;;;;;;5062011;28;20882;-47
2023/12/27 03:58:23;;;;;;;3.93;1.90;;;9.10;99.90;;;;;;5052145;28;20988;-47
2023/12/27 04:00:53;;;;;;;5.03;2.00;;;9.10;99.90;;;;;;5065927;28;20458;-48
2023/12/27 04:03:21;;;;;;;4.10;2.10;;;9.10;99.90;;;;;;5049795;28;20473;-47
2023/12/27 04:05:49;;;;;;;2.23;1.53;;;9.10;99.90;;;;;;5051070;28;20665;-49
2023/12/27 04:08:17;;;;;;;3.60;1.60;;;9.10;99.90;;;;;;5052989;28;20504;-48
2023/12/27 04:10:46;;;;;;;2.50;1.57;;;9.10;99.90;;;;;;5059298;28;20531;-46
2023/12/27 04:13:14;;;;;;;2.50;1.53;;;9.10;99.90;;;;;;5046171;28;20467;-50
2023/12/27 04:15:42;;;;;;;3.50;1.53;;;9.10;99.90;;;;;;5058139;28;20478;-48
2023/12/27 04:18:11;;;;;;;3.50;1.80;;;9.10;99.90;;;;;;5063521;28;20459;-48
2023/12/27 04:20:40;;;;;;;2.57;1.87;;;9.10;99.90;;;;;;5057997;28;20468;-49
2023/12/27 04:23:08;;;;;;;2.63;1.50;;;9.10;99.90;;;;;;5060530;28;20471;-46
2023/12/27 04:25:36;;;;;;;3.00;1.50;;;9.10;99.90;;;;;;5060294;28;20882;-47
2023/12/27 04:28:06;;;;;;;2.70;1.47;;;9.10;99.90;;;;;;5052745;28;20483;-46
2023/12/27 04:30:34;;;;;;;2.43;1.33;;;9.10;99.90;;;;;;5066452;28;20504;-49
2023/12/27 04:33:02;;;;;;;3.07;1.70;;;9.10;99.90;;;;;;5063353;28;20885;-48
2023/12/27 04:35:31;;;;;;;2.30;1.60;;;9.10;99.90;;;;;;5055583;28;20460;-48
2023/12/27 04:38:00;;;;;;;4.40;2.00;;;9.10;99.90;;;;;;5060471;28;20466;-49
2023/12/27 04:40:28;;;;;;;2.73;2.07;;;9.10;99.90;;;;;;5054021;28;20496;-47
2023/12/27 04:42:57;;;;;;;3.00;1.70;;;9.10;99.90;;;;;;5041232;28;20480;-48
2023/12/27 04:45:26;;;;;;;4.30;1.60;;;9.00;99.90;;;;;;5052178;28;20439;-48
2023/12/27 04:47:53;;;;;;;5.13;2.30;;;9.00;99.90;;;;;;5063177;28;20566;-48
2023/12/27 04:50:22;;;;;;;2.97;1.87;;;9.00;99.90;;;;;;5065323;28;20569;-48
2023/12/27 04:52:50;;;;;;;2.70;1.23;;;9.00;99.90;;;;;;5057789;28;20851;-48
2023/12/27 04:55:18;;;;;;;2.50;1.60;;;9.00;99.90;;;;;;5061048;28;20432;-49
2023/12/27 04:57:46;;;;;;;2.63;1.70;;;9.00;99.90;;;;;;5050538;28;21011;-47
2023/12/27 05:00:14;;;;;;;2.70;1.77;;;9.00;99.90;;;;;;5055885;28;20466;-46
2023/12/27 05:02:44;;;;;;;2.63;2.10;;;9.00;99.90;;;;;;5055052;28;20562;-49
2023/12/27 05:05:13;;;;;;;2.50;1.70;;;9.00;99.90;;;;;;5062530;28;20427;-47
2023/12/27 05:07:42;;;;;;;3.83;1.87;;;9.00;99.90;;;;;;5060415;28;20472;-47
2023/12/27 05:10:11;;;;;;;2.90;1.83;;;9.00;99.90;;;;;;5047994;28;20479;-47
2023/12/27 05:12:39;;;;;;;4.00;2.10;;;9.00;99.90;;;;;;5057567;28;20469;-49
2023/12/27 05:15:08;;;;;;;3.27;2.07;;;9.00;99.90;;;;;;5060911;28;20429;-48
2023/12/27 05:17:36;;;;;;;2.80;1.47;;;9.00;99.90;;;;;;5065319;28;21052;-49
2023/12/27 05:20:07;;;;;;;3.23;2.40;;;9.00;99.90;;;;;;5063672;28;20445;-47
2023/12/27 05:22:39;;;;;;;2.73;1.70;;;9.00;99.90;;;;;;5053147;28;20477;-47
2023/12/27 05:25:08;;;;;;;4.13;1.30;;;9.00;99.90;;;;;;5059146;28;20434;-48
2023/12/27 05:27:36;;;;;;;3.10;1.57;;;9.00;99.90;;;;;;5062059;28;20462;-48
2023/12/27 05:30:08;;;;;;;3.50;2.37;;;9.00;99.90;;;;;;5059630;28;20442;-48
2023/12/27 05:32:37;;;;;;;2.60;1.77;;;9.00;99.90;;;;;;5063479;28;20576;-50
2023/12/27 05:35:09;;;;;;;3.20;2.17;;;9.00;99.90;;;;;;5062994;28;20441;-46
2023/12/27 05:37:37;;;;;;;2.60;1.60;;;9.00;99.90;;;;;;5046424;28;20543;-50
2023/12/27 05:40:06;;;;;;;2.97;2.17;;;9.00;99.90;;;;;;5061314;28;20454;-47
2023/12/27 05:42:34;;;;;;;2.60;1.20;;;9.00;99.90;;;;;;5059653;28;20459;-47
2023/12/27 05:45:03;;;;;;;2.30;1.80;;;8.90;99.90;;;;;;5054185;28;20502;-49
2023/12/27 05:47:31;;;;;;;2.60;1.43;;;9.00;99.90;;;;;;5060299;28;20975;-48
2023/12/27 05:49:59;;;;;;;3.30;1.73;;;8.90;99.90;;;;;;5049697;28;20836;-47
2023/12/27 05:52:29;;;;;;;2.23;1.67;;;8.90;99.90;;;;;;5046173;28;21032;-45
2023/12/27 05:54:57;;;;;;;5.53;1.90;;;9.00;99.90;;;;;;5059141;28;20427;-49
2023/12/27 05:57:25;;;;;;;3.03;1.63;;;8.90;99.90;;;;;;5056961;28;20458;-49
2023/12/27 05:59:53;;;;;;;3.27;1.70;;;9.00;99.90;;;;;;5050327;28;20463;-48
2023/12/27 06:02:21;;;;;;;1.80;1.30;;;9.00;99.90;;;;;;5057310;28;20839;-50
2023/12/27 06:04:49;;;;;;;2.30;1.60;;;8.90;99.90;;;;;;5065380;28;20618;-49
2023/12/27 06:07:17;;;;;;;2.90;2.00;;;8.90;99.90;;;;;;5049143;28;20474;-48
2023/12/27 06:09:47;;;;;;;2.43;1.60;;;8.90;99.90;;;;;;5065925;28;20536;-47
2023/12/27 06:12:15;;;;;;;2.43;1.57;;;8.90;99.90;;;;;;5049803;28;20513;-48
2023/12/27 06:14:43;;;;;;;3.03;1.77;;;8.90;99.90;;;;;;5058881;28;20443;-48
2023/12/27 06:17:11;;;;;;;3.07;1.70;;;8.90;99.90;;;;;;5043712;28;20470;-48
2023/12/27 06:19:39;;;;;;;2.43;1.50;;;8.90;99.90;;;;;;5056011;28;21006;-49
2023/12/27 06:22:07;;;;;;;2.87;2.07;;;8.90;99.90;;;;;;5049681;28;20464;-47
2023/12/27 06:24:35;;;;;;;2.90;2.10;;;8.90;99.90;;;;;;5065725;28;20452;-46
2023/12/27 06:27:06;;;;;;;2.80;2.13;;;8.90;99.90;;;;;;5062620;28;20502;-48
2023/12/27 06:29:35;;;;;;;2.40;1.90;;;8.90;99.90;;;;;;5055129;28;20701;-48
2023/12/27 06:32:04;;;;;;;2.63;1.73;;;8.90;99.90;;;;;;5045848;28;20989;-47
2023/12/27 06:34:32;;;;;;;3.57;2.30;;;8.90;99.90;;;;;;5062471;28;20476;-49
2023/12/27 06:37:00;;;;;;;2.50;1.57;;;8.90;99.90;;;;;;5050739;28;20866;-49
2023/12/27 06:39:29;;;;;;;3.93;1.83;;;8.90;99.90;;;;;;5051391;28;20501;-48
2023/12/27 06:41:57;;;;;;;2.60;1.73;;;8.90;99.90;;;;;;5046119;28;20495;-47
2023/12/27 06:44:26;;;;;;;2.90;2.23;;;8.90;99.90;;;;;;5045244;28;20448;-48
2023/12/27 06:46:54;;;;;;;2.50;1.63;;;8.90;99.90;;;;;;5042978;28;20491;-49
2023/12/27 06:49:22;;;;;;;3.30;1.83;;;8.90;99.90;;;;;;5060994;28;20445;-46
2023/12/27 06:51:51;;;;;;;3.10;2.80;;;8.90;99.90;;;;;;5059218;28;20574;-52
2023/12/27 06:54:19;;;;;;;3.77;2.20;;;8.90;99.90;;;;;;5055424;28;20429;-49
2023/12/27 06:56:47;;;;;;;2.87;2.00;;;8.90;99.90;;;;;;5059810;28;20487;-50
2023/12/27 06:59:18;;;;;;;3.00;1.70;;;8.90;99.90;;;;;;5059116;28;20553;-47
2023/12/27 07:01:47;;;;;;;2.80;1.50;;;8.90;99.90;;;;;;5068477;28;20523;-45
2023/12/27 07:04:16;;;;;;;2.93;1.90;;;8.90;99.90;;;;;;5066141;28;20430;-48
2023/12/27 07:06:44;;;;;;;2.20;1.67;;;8.80;99.90;;;;;;5062516;28;20450;-49
2023/12/27 07:09:12;;;;;;;2.90;1.70;;;8.90;99.90;;;;;;5051421;28;20562;-49
2023/12/27 07:11:40;;;;;;;3.90;1.90;;;8.90;99.90;;;;;;5064931;28;20464;-46
2023/12/27 07:14:08;;;;;;;3.27;2.10;;;8.90;99.90;;;;;;5051235;28;20499;-47
2023/12/27 07:16:36;;;;;;;3.03;1.90;;;8.90;99.90;;;;;;5065418;28;20540;-46
2023/12/27 07:19:05;;;;;;;2.80;1.47;;;8.90;99.90;;;;;;5063494;28;20426;-47
2023/12/27 07:21:34;;;;;;;2.13;1.30;;;8.80;99.90;;;;;;5053446;28;20459;-45
2023/12/27 07:24:02;;;;;;;2.57;1.87;;;8.80;99.90;;;;;;5062739;28;20826;-47
2023/12/27 07:26:30;;;;;;;3.00;2.00;;;8.80;99.90;;;;;;5060232;28;20470;-50
2023/12/27 07:28:58;;;;;;;2.50;2.07;;;8.80;99.90;;;;;;5046659;28;20497;-49
2023/12/27 07:31:26;;;;;;;2.10;1.90;;;8.90;99.90;;;;;;5067624;28;20445;-49
2023/12/27 07:33:54;;;;;;;1.90;1.53;;;8.80;99.90;;;;;;5062555;28;20492;-49
2023/12/27 07:36:24;;;;;;;4.00;2.00;;;8.80;99.90;;;;;;5040144;28;20442;-49
2023/12/27 07:38:52;;;;;;;1.90;1.47;;;8.80;99.90;;;;;;5066830;28;20418;-49
2023/12/27 07:41:20;;;;;;;2.90;1.40;;;8.80;99.90;;;;;;5058344;28;20485;-47
2023/12/27 07:43:49;;;;;;;2.23;1.30;;;8.80;99.90;;;;;;5052271;28;20443;-46
2023/12/27 07:46:17;;;;;;;2.90;1.20;;;8.80;99.90;;;;;;5037070;28;20428;-49
2023/12/27 07:48:45;;;;;;;4.80;2.87;;;8.90;99.90;;;;;;5060875;28;20441;-47
2023/12/27 07:51:13;;;;;;;2.37;1.50;;;8.80;99.90;;;;;;5059595;28;21137;-47
2023/12/27 07:53:43;;;;;;;3.03;1.53;;;8.80;99.90;;;;;;5061952;28;20966;-47
2023/12/27 07:56:12;;;;;;;3.10;1.57;;;8.80;99.90;;;;;;5048751;28;20472;-47
2023/12/27 07:58:40;;;;;;;3.10;1.80;;;8.80;99.90;;;;;;5053560;28;20466;-46
2023/12/27 08:01:08;;;;;;;2.40;1.57;;;8.90;99.90;;;;;;5066040;28;20438;-48
2023/12/27 08:03:37;;;;;;;2.10;1.57;;;8.80;99.90;;;;;;5067027;28;20458;-49
2023/12/27 08:06:06;;;;;;;2.30;1.70;;;8.80;99.90;;;;;;5057468;28;21000;-48
2023/12/27 08:08:34;;;;;;;3.07;1.30;;;8.80;99.90;;;;;;5063808;28;21062;-47
2023/12/27 08:11:04;;;;;;;2.27;1.40;;;8.80;99.90;;;;;;5050849;28;20449;-50
2023/12/27 08:13:33;;;;;;;1.70;1.13;;;8.80;99.90;;;;;;5059992;28;20999;-47
2023/12/27 08:16:01;;;;;;;1.77;1.20;;;8.80;99.90;;;;;;5057559;28;20954;-50
2023/12/27 08:18:29;;;;;;;1.97;1.17;;;8.80;99.90;;;;;;5057031;28;20458;-46
2023/12/27 08:20:57;;;;;;;1.77;1.20;;;8.80;99.90;;;;;;5066716;28;20446;-47
2023/12/27 08:23:26;;;;;;;1.90;1.23;;;8.80;99.90;;;;;;5055874;28;20470;-46
2023/12/27 08:25:54;;;;;;;2.23;1.60;;;8.80;99.90;;;;;;5040156;28;20848;-46
2023/12/27 08:28:23;;;;;;;1.73;1.23;;;8.80;99.90;;;;;;5057244;28;20502;-47
2023/12/27 08:30:53;;;;;;;1.47;0.93;;;8.80;99.90;;;;;;5065161;28;20454;-46
2023/12/27 08:33:21;;;;;;;1.63;1.20;;;8.80;99.90;;;;;;5065547;28;20466;-47
2023/12/27 08:35:50;;;;;;;1.93;1.30;;;8.80;99.90;;;;;;5061868;28;20650;-49
2023/12/27 08:38:20;;;;;;;2.27;1.20;;;8.80;99.90;;;;;;5043834;28;20475;-48
2023/12/27 08:40:48;;;;;;;3.07;1.40;;;8.80;99.90;;;;;;5067864;28;20453;-48
2023/12/27 08:43:19;;;;;;;1.47;1.10;;;8.80;99.90;;;;;;5053065;28;20506;-46
2023/12/27 08:45:48;;;;;;;1.97;0.87;;;8.80;99.90;;;;;;5048947;28;20482;-50
2023/12/27 08:48:17;;;;;;;1.43;0.93;;;8.80;99.90;;;;;;5046550;28;20542;-45
2023/12/27 08:50:46;;;;;;;1.30;0.80;;;8.80;99.90;;;;;;5066962;28;20450;-48
2023/12/27 08:53:14;;;;;;;1.90;0.90;;;8.80;99.90;;;;;;5051434;28;20560;-48
2023/12/27 08:55:42;;;;;;;2.60;1.23;;;8.80;99.90;;;;;;5059438;28;20422;-49
2023/12/27 08:58:12;;;;;;;1.60;1.10;;;8.80;99.90;;;;;;5058086;28;20474;-48
2023/12/27 09:00:40;;;;;;;1.73;1.00;;;8.80;99.90;;;;;;5063665;28;20450;-47
2023/12/27 09:03:10;;;;;;;1.87;1.10;;;8.80;99.90;;;;;;5061308;28;20477;-47
2023/12/27 09:05:38;;;;;;;1.40;0.90;;;8.80;99.90;;;;;;5062076;28;20411;-46
2023/12/27 09:08:06;;;;;;;1.73;0.90;;;8.80;99.90;;;;;;5049306;28;20493;-46
2023/12/27 09:10:35;;;;;;;1.70;0.80;;;8.80;99.90;;;;;;5067110;28;20475;-47
2023/12/27 09:13:03;;;;;;;2.77;1.00;;;8.80;99.90;;;;;;5048182;28;20993;-48
2023/12/27 09:15:32;;;;;;;3.20;1.80;;;8.80;99.90;;;;;;5050051;28;20940;-48
2023/12/27 09:18:00;;;;;;;1.83;1.17;;;8.80;99.90;;;;;;5059969;28;20481;-48
2023/12/27 09:20:30;;;;;;;1.40;1.03;;;8.80;99.90;;;;;;5052005;28;20490;-48
2023/12/27 09:22:58;;;;;;;1.23;0.80;;;8.80;99.90;;;;;;5049319;28;20467;-49
2023/12/27 09:25:26;;;;;;;2.10;1.20;;;8.80;99.90;;;;;;5057367;28;20430;-49
2023/12/27 09:27:55;;;;;;;1.80;1.00;;;8.80;99.90;;;;;;5033368;28;20892;-49
2023/12/27 09:30:23;;;;;;;2.10;1.37;;;8.80;99.90;;;;;;5049956;28;20462;-47
2023/12/27 09:32:52;;;;;;;1.93;1.13;;;8.70;99.90;;;;;;5061832;28;20870;-46
2023/12/27 09:35:20;;;;;;;1.77;1.00;;;8.70;99.90;;;;;;5050635;28;20783;-48
2023/12/27 09:37:49;;;;;;;3.03;1.20;;;8.70;99.90;;;;;;5056641;28;20519;-47
2023/12/27 09:40:16;;;;;;;1.67;1.13;;;8.70;99.90;;;;;;5065401;28;20476;-47
2023/12/27 09:42:47;;;;;;;1.80;1.10;;;8.70;99.90;;;;;;5045864;28;20466;-49
2023/12/27 09:45:17;;;;;;;1.60;0.93;;;8.70;99.90;;;;;;5051410;28;20435;-49
2023/12/27 09:47:46;;;;;;;1.83;0.93;;;8.70;99.90;;;;;;5051076;28;20460;-49
2023/12/27 09:50:14;;;;;;;1.60;1.10;;;8.80;99.90;;;;;;5054250;28;21382;-47
2023/12/27 09:52:44;;;;;;;1.50;0.90;;;8.80;99.90;;;;;;5044813;28;20466;-50
2023/12/27 09:55:14;;;;;;;1.73;0.97;;;8.70;99.90;;;;;;5059640;28;20471;-49
2023/12/27 09:57:42;;;;;;;1.93;1.10;;;8.70;99.90;;;;;;5047085;28;20455;-48
2023/12/27 10:00:12;;;;;;;1.97;1.23;;;8.70;99.90;;;;;;5061603;28;20939;-48
2023/12/27 10:02:42;;;;;;;1.53;0.80;;;8.70;99.90;;;;;;5053698;28;21107;-49
2023/12/27 10:05:16;;;;;;;1.60;1.20;;;8.70;99.90;;;;;;5057929;28;20757;-48
2023/12/27 10:07:44;;;;;;;4.40;1.47;;;8.70;99.90;;;;;;5047048;28;21018;-48
2023/12/27 10:10:14;;;;;;;1.30;0.90;;;8.70;99.90;;;;;;5045653;28;20457;-48
2023/12/27 10:12:55;;;;;;;2.30;0.80;;;8.80;99.90;;;;;;5036565;28;20873;-45
2023/12/27 10:15:23;;;;;;;2.80;1.00;;;8.80;99.90;;;;;;5046772;28;20474;-47
2023/12/27 10:17:52;;;;;;;1.60;1.00;;;8.80;99.90;;;;;;5059327;28;20990;-49
2023/12/27 10:20:46;;;;;;;1.40;0.80;;;8.80;99.90;;;;;;5056934;28;20486;-46
2023/12/27 10:23:14;;;;;;;1.40;0.80;;;8.80;99.90;;;;;;5044820;28;20459;-46
2023/12/27 10:25:44;;;;;;;2.13;0.70;;;8.80;99.90;;;;;;5061814;28;20422;-48
2023/12/27 10:28:12;;;;;;;1.90;0.80;;;8.80;99.90;;;;;;5051327;28;20491;-47
2023/12/27 10:30:40;;;;;;;1.47;0.73;;;8.80;99.90;;;;;;5058700;28;20983;-49
2023/12/27 10:33:09;;;;;;;1.43;0.77;;;8.70;99.90;;;;;;5059637;28;20465;-48
2023/12/27 10:35:41;;;;;;;1.60;1.07;;;8.70;99.90;;;;;;5057205;28;20494;-47
2023/12/27 10:38:09;;;;;;;1.47;0.87;;;8.70;99.90;;;;;;5050305;28;20876;-49
2023/12/27 10:40:39;;;;;;;1.98;0.93;;;8.70;99.90;;;;;;5070080;28;21020;-50
2023/12/27 10:43:09;;;;;;;2.17;0.90;;;8.70;99.90;;;;;;5051526;28;20648;-50
2023/12/27 10:45:38;;;;;;;2.23;0.80;;;8.70;99.90;;;;;;5055098;28;20868;-47
2023/12/27 10:48:07;;;;;;;1.53;0.80;;;8.80;99.90;;;;;;5054690;28;20456;-49
2023/12/27 10:50:35;;;;;;;2.87;1.30;;;8.80;99.90;;;;;;5059056;28;20537;-49
2023/12/27 10:53:06;;;;;;;1.40;0.90;;;8.80;99.90;;;;;;5049802;28;20474;-50
2023/12/27 10:55:36;;;;;;;2.07;0.80;;;8.80;99.90;;;;;;5052956;28;20480;-47
2023/12/27 10:58:16;;;;;;;1.97;1.07;;;8.80;99.90;;;;;;5047828;28;20482;-47
2023/12/27 11:00:46;;;;;;;2.40;1.13;;;8.80;99.90;;;;;;5045135;28;20454;-48
2023/12/27 11:03:15;;;;;;;1.50;0.87;;;8.80;99.90;;;;;;5050951;28;20458;-47
2023/12/27 11:05:46;;;;;;;1.70;0.80;;;8.80;99.90;;;;;;5051958;28;20909;-49
2023/12/27 11:08:15;;;;;;;1.70;0.80;;;8.80;99.90;;;;;;5048512;28;20542;-48
2023/12/27 11:10:45;;;;;;;1.93;1.00;;;8.80;99.90;;;;;;5053648;28;20442;-49
2023/12/27 11:13:16;;;;;;;1.73;1.00;;;8.80;99.90;;;;;;5058092;28;20996;-47
2023/12/27 11:15:47;;;;;;;2.00;1.10;;;8.80;99.90;;;;;;5054587;28;20471;-47
2023/12/27 11:18:15;;;;;;;1.80;1.00;;;8.80;99.90;;;;;;5059521;28;20458;-48
2023/12/27 11:20:47;;;;;;;1.60;0.97;;;8.80;99.90;;;;;;5059380;28;20852;-49
2023/12/27 11:23:15;;;;;;;4.33;0.80;;;8.80;99.90;;;;;;5045314;28;20467;-46
2023/12/27 11:25:43;;;;;;;2.43;0.97;;;8.80;99.90;;;;;;5035012;28;20454;-50
2023/12/27 11:28:12;;;;;;;2.70;0.87;;;8.80;99.90;;;;;;5038548;28;20475;-47
2023/12/27 11:30:43;;;;;;;2.13;1.00;;;8.80;99.90;;;;;;5063650;28;20481;-51
2023/12/27 11:33:11;;;;;;;1.67;0.77;;;8.80;99.90;;;;;;5058113;28;20513;-48
2023/12/27 11:35:39;;;;;;;3.97;1.00;;;8.80;99.90;;;;;;5058012;28;20514;-48
2023/12/27 11:38:15;;;;;;;2.37;1.17;;;8.80;99.90;;;;;;5059233;28;20865;-47
2023/12/27 11:40:44;;;;;;;1.70;1.20;;;8.80;99.90;;;;;;5058512;28;20532;-48
2023/12/27 11:43:20;;;;;;;3.67;1.30;;;8.80;99.90;;;;;;5037229;28;21535;-48
2023/12/27 11:46:00;;;;;;;2.03;1.13;;;8.80;99.90;;;;;;5067743;28;20434;-47
2023/12/27 11:48:33;;;;;;;1.63;0.80;;;8.80;99.90;;;;;;5052670;28;20785;-50
2023/12/27 11:51:02;;;;;;;1.80;1.13;;;8.80;99.90;;;;;;5057964;28;20449;-47
2023/12/27 11:53:30;;;;;;;1.87;0.80;;;8.80;99.90;;;;;;5046385;28;20529;-46
2023/12/27 11:55:59;;;;;;;2.43;1.27;;;8.80;99.90;;;;;;5060942;28;20469;-50
2023/12/27 11:58:32;;;;;;;2.30;0.87;;;8.80;99.90;;;;;;5044387;28;20565;-47
2023/12/27 12:01:24;;;;;;;2.57;1.10;;;8.80;99.90;;;;;;5068155;28;20442;-47
2023/12/27 12:04:02;;;;;;;1.67;1.00;;;8.80;99.90;;;;;;5057480;28;20559;-47
2023/12/27 12:06:47;;;;;;;2.30;1.10;;;8.80;99.90;;;;;;5048778;28;20449;-46
2023/12/27 12:09:17;;;;;;;2.17;0.90;;;8.80;99.90;;;;;;5067056;28;20461;-47
2023/12/27 12:11:45;;;;;;;2.93;1.37;;;8.80;99.90;;;;;;5052513;28;20494;-49
2023/12/27 12:14:13;;;;;;;2.57;1.40;;;8.80;99.90;;;;;;5053026;28;20954;-48
2023/12/27 12:16:43;;;;;;;3.93;1.03;;;8.80;99.90;;;;;;5040684;28;20825;-48
2023/12/27 12:19:15;;;;;;;1.83;1.20;;;8.80;99.90;;;;;;5066960;28;20535;-50
2023/12/27 12:21:45;;;;;;;1.70;0.93;;;8.80;99.90;;;;;;5041398;28;20520;-46
2023/12/27 12:24:14;;;;;;;1.90;0.90;;;8.80;99.90;;;;;;5065623;28;20924;-47
2023/12/27 12:26:45;;;;;;;4.70;1.30;;;8.80;99.90;;;;;;5061348;28;20457;-48
2023/12/27 12:29:13;;;;;;;1.83;1.33;;;8.80;99.90;;;;;;5059125;28;20473;-47
2023/12/27 12:31:43;;;;;;;1.77;1.10;;;8.80;99.90;;;;;;5068248;28;20450;-47
2023/12/27 12:34:11;;;;;;;2.83;0.90;;;8.80;99.90;;;;;;5057026;28;20448;-48
2023/12/27 12:36:40;;;;;;;2.30;1.10;;;8.80;99.90;;;;;;5068372;28;20462;-48
2023/12/27 12:39:08;;;;;;;2.30;1.20;;;8.80;99.90;;;;;;5051473;28;20447;-47
2023/12/27 12:41:36;;;;;;;2.47;1.60;;;8.80;99.90;;;;;;5058646;28;20797;-47
2023/12/27 12:44:05;;;;;;;2.50;1.13;;;8.80;99.90;;;;;;5043002;28;20467;-48
2023/12/27 12:46:33;;;;;;;4.73;1.70;;;8.80;99.90;;;;;;5057791;28;20472;-47
2023/12/27 12:49:03;;;;;;;1.90;1.13;;;8.80;99.90;;;;;;5053907;28;20434;-45
2023/12/27 12:51:31;;;;;;;1.80;1.10;;;8.70;99.90;;;;;;5045900;28;20534;-46
2023/12/27 12:54:00;;;;;;;2.40;1.23;;;8.70;99.90;;;;;;5061051;28;20519;-49
2023/12/27 12:56:28;;;;;;;2.00;1.10;;;8.80;99.90;;;;;;5052606;28;20462;-47
2023/12/27 12:58:57;;;;;;;1.40;0.80;;;8.70;99.90;;;;;;5048531;28;20436;-47
2023/12/27 13:01:26;;;;;;;1.97;1.00;;;8.70;99.90;;;;;;5067157;28;20527;-46
2023/12/27 13:03:57;;;;;;;2.20;0.90;;;8.80;99.90;;;;;;5058733;28;20456;-49
2023/12/27 13:06:26;;;;;;;1.90;1.07;;;8.70;99.90;;;;;;5059744;28;20435;-46